Time;durP1;ratioP1;P1;durP2;ratioP2;P2;SDS_P1;SDS_P2;PMS_P1;PMS_P2;Temp;Humidity;BMP_temperature;BMP_pressure;BME280_temperature;BME280_humidity;BME280_pressure;Samples;Min_cycle;Max_cycle;Signal;HPM_P1;HPM_P2
2023/09/27 00:00:32;;;;;;;3.20;2.90;;;;;;;;;;5071700;28;20410;-76
2023/09/27 00:02:58;;;;;;;3.00;2.80;;;;;;;;;;5071328;28;20412;-77
2023/09/27 00:05:24;;;;;;;3.67;3.00;;;;;;;;;;5075527;28;20376;-77
2023/09/27 00:07:53;;;;;;;3.70;3.20;;;;;;;;;;5074404;28;20526;-77
2023/09/27 00:10:19;;;;;;;3.40;3.10;;;;;;;;;;5061904;28;20371;-76
2023/09/27 00:12:46;;;;;;;3.17;2.97;;;;;;;;;;5071393;28;20453;-77
2023/09/27 00:15:13;;;;;;;3.38;3.08;;;;;;;;;;5069667;28;20388;-76
2023/09/27 00:17:39;;;;;;;3.27;2.80;;;;;;;;;;5071439;28;20837;-77
2023/09/27 00:20:06;;;;;;;3.20;2.90;;;;;;;;;;5070858;28;20380;-77
2023/09/27 00:22:32;;;;;;;4.45;2.45;;;;;;;;;;5074725;28;20412;-77
2023/09/27 00:24:58;;;;;;;3.42;2.95;;;;;;;;;;5071197;28;20722;-77
2023/09/27 00:27:26;;;;;;;6.10;3.10;;;;;;;;;;5070799;28;20475;-77
2023/09/27 00:29:52;;;;;;;3.80;3.05;;;;;;;;;;5071063;28;20383;-77
2023/09/27 00:32:18;;;;;;;3.33;2.63;;;;;;;;;;5070723;28;20376;-77
2023/09/27 00:34:44;;;;;;;3.40;3.10;;;;;;;;;;5071258;28;20380;-77
2023/09/27 00:37:10;;;;;;;2.42;2.22;;;;;;;;;;5052963;28;20383;-77
2023/09/27 00:39:36;;;;;;;3.30;2.80;;;;;;;;;;5070600;28;20755;-77
2023/09/27 00:42:02;;;;;;;3.05;2.85;;;;;;;;;;5073571;28;20483;-76
2023/09/27 00:44:28;;;;;;;3.00;2.60;;;;;;;;;;5064972;28;21353;-77
2023/09/27 00:46:54;;;;;;;4.50;3.20;;;;;;;;;;5055908;28;20394;-77
2023/09/27 00:49:21;;;;;;;3.08;2.78;;;;;;;;;;5057430;28;20430;-78
2023/09/27 00:51:47;;;;;;;3.35;3.00;;;;;;;;;;5052267;28;20470;-78
2023/09/27 00:54:13;;;;;;;3.35;3.05;;;;;;;;;;5066200;28;20376;-77
2023/09/27 00:56:40;;;;;;;3.53;3.22;;;;;;;;;;5067188;28;20916;-78
2023/09/27 00:59:07;;;;;;;3.20;3.00;;;;;;;;;;5064512;28;20393;-78
2023/09/27 01:01:33;;;;;;;3.13;2.85;;;;;;;;;;5068127;28;20903;-77
2023/09/27 01:03:59;;;;;;;3.55;2.72;;;;;;;;;;5062071;28;20393;-78
2023/09/27 01:06:26;;;;;;;3.13;2.92;;;;;;;;;;5072774;28;20436;-78
2023/09/27 01:08:52;;;;;;;3.30;3.00;;;;;;;;;;5064822;28;20436;-79
2023/09/27 01:11:18;;;;;;;3.35;3.05;;;;;;;;;;5062149;28;20412;-78
2023/09/27 01:13:44;;;;;;;3.03;2.72;;;;;;;;;;5055254;28;20459;-78
2023/09/27 01:16:10;;;;;;;3.30;3.00;;;;;;;;;;5054779;28;20385;-78
2023/09/27 01:18:37;;;;;;;3.08;2.88;;;;;;;;;;5055209;28;20396;-78
2023/09/27 01:21:03;;;;;;;3.45;3.20;;;;;;;;;;5057487;28;20396;-78
2023/09/27 01:23:29;;;;;;;4.53;2.70;;;;;;;;;;5070955;28;20472;-79
2023/09/27 01:25:59;;;;;;;3.40;2.75;;;;;;;;;;5050485;28;20387;-77
2023/09/27 01:28:26;;;;;;;4.45;3.13;;;;;;;;;;5067421;28;20407;-79
2023/09/27 01:30:51;;;;;;;3.10;2.80;;;;;;;;;;5065734;28;20836;-79
2023/09/27 01:33:17;;;;;;;3.50;3.05;;;;;;;;;;5068985;28;20412;-78
2023/09/27 01:35:44;;;;;;;3.37;3.07;;;;;;;;;;5067752;28;20392;-78
2023/09/27 01:38:11;;;;;;;3.40;3.10;;;;;;;;;;5059575;28;20400;-78
2023/09/27 01:40:41;;;;;;;4.00;3.25;;;;;;;;;;5056443;28;20475;-78
2023/09/27 01:43:07;;;;;;;3.40;3.10;;;;;;;;;;5060201;28;20945;-78
2023/09/27 01:45:33;;;;;;;2.80;2.60;;;;;;;;;;5066290;28;20439;-77
2023/09/27 01:47:59;;;;;;;3.40;3.10;;;;;;;;;;5067243;28;20829;-78
2023/09/27 01:50:26;;;;;;;3.13;2.83;;;;;;;;;;5061141;28;20400;-78
2023/09/27 01:52:52;;;;;;;3.42;3.13;;;;;;;;;;5054145;28;20397;-78
2023/09/27 01:55:18;;;;;;;3.58;2.97;;;;;;;;;;5062681;28;20722;-78
2023/09/27 01:57:47;;;;;;;3.13;2.92;;;;;;;;;;5069022;28;20405;-78
2023/09/27 02:00:14;;;;;;;3.55;3.03;;;;;;;;;;5064007;28;20382;-78
2023/09/27 02:02:44;;;;;;;3.30;2.78;;;;;;;;;;5071698;28;20456;-78
2023/09/27 02:05:10;;;;;;;3.40;3.10;;;;;;;;;;5074236;28;20402;-78
2023/09/27 02:07:39;;;;;;;3.80;2.80;;;;;;;;;;5073907;28;20849;-78
2023/09/27 02:10:09;;;;;;;3.40;3.10;;;;;;;;;;5073801;28;20380;-78
2023/09/27 02:12:36;;;;;;;3.00;2.70;;;;;;;;;;5055730;28;20411;-78
2023/09/27 02:15:02;;;;;;;3.33;3.03;;;;;;;;;;5073775;28;20379;-78
2023/09/27 02:17:28;;;;;;;3.13;2.88;;;;;;;;;;5055787;28;20437;-78
2023/09/27 02:19:55;;;;;;;3.80;3.00;;;;;;;;;;5073856;28;20383;-78
2023/09/27 02:22:21;;;;;;;3.33;3.03;;;;;;;;;;5075523;28;20546;-78
2023/09/27 02:24:47;;;;;;;3.53;2.80;;;;;;;;;;5073894;28;20741;-78
2023/09/27 02:27:14;;;;;;;3.25;2.95;;;;;;;;;;5078564;28;20383;-78
2023/09/27 02:29:40;;;;;;;2.80;2.60;;;;;;;;;;5074043;28;20474;-78
2023/09/27 02:32:07;;;;;;;3.30;3.10;;;;;;;;;;5072990;28;20395;-77
2023/09/27 02:34:33;;;;;;;3.22;2.92;;;;;;;;;;5073120;28;20387;-78
2023/09/27 02:36:59;;;;;;;3.35;2.90;;;;;;;;;;5073513;28;20927;-78
2023/09/27 02:39:25;;;;;;;3.40;3.10;;;;;;;;;;5073164;28;20376;-77
2023/09/27 02:41:51;;;;;;;4.07;3.35;;;;;;;;;;5072631;28;20411;-77
2023/09/27 02:44:17;;;;;;;3.35;3.05;;;;;;;;;;5075368;28;20699;-77
2023/09/27 02:46:44;;;;;;;2.88;2.67;;;;;;;;;;5072414;28;20387;-77
2023/09/27 02:49:10;;;;;;;3.30;3.00;;;;;;;;;;5072558;28;20408;-77
2023/09/27 02:51:37;;;;;;;3.17;2.80;;;;;;;;;;5073202;28;20388;-78
2023/09/27 02:54:04;;;;;;;2.95;2.65;;;;;;;;;;5067659;28;20399;-77
2023/09/27 02:56:30;;;;;;;3.50;3.08;;;;;;;;;;5068320;28;20376;-78
2023/09/27 02:58:56;;;;;;;3.03;2.72;;;;;;;;;;5073377;28;20426;-78
2023/09/27 03:01:22;;;;;;;3.13;2.90;;;;;;;;;;5073657;28;20443;-78
2023/09/27 03:03:49;;;;;;;3.95;2.88;;;;;;;;;;5074091;28;20449;-78
2023/09/27 03:06:16;;;;;;;3.13;2.83;;;;;;;;;;5075539;28;20726;-78
2023/09/27 03:08:45;;;;;;;3.37;3.07;;;;;;;;;;5073787;28;20399;-78
2023/09/27 03:11:12;;;;;;;4.00;3.10;;;;;;;;;;5073059;28;20384;-78
2023/09/27 03:13:38;;;;;;;3.00;2.80;;;;;;;;;;5072747;28;20411;-78
2023/09/27 03:16:04;;;;;;;3.17;2.87;;;;;;;;;;5076804;28;20391;-78
2023/09/27 03:18:31;;;;;;;3.80;3.00;;;;;;;;;;5078638;28;20387;-78
2023/09/27 03:20:58;;;;;;;3.05;2.72;;;;;;;;;;5071943;28;20386;-78
2023/09/27 03:23:24;;;;;;;3.50;3.20;;;;;;;;;;5073208;28;20422;-78
2023/09/27 03:25:50;;;;;;;3.38;3.10;;;;;;;;;;5073287;28;20767;-78
2023/09/27 03:28:17;;;;;;;3.20;2.90;;;;;;;;;;5073249;28;20380;-78
2023/09/27 03:30:43;;;;;;;3.50;3.20;;;;;;;;;;5073395;28;20845;-78
2023/09/27 03:33:09;;;;;;;3.05;2.85;;;;;;;;;;5072870;28;20469;-78
2023/09/27 03:35:35;;;;;;;3.42;3.13;;;;;;;;;;5072690;28;20379;-78
2023/09/27 03:38:01;;;;;;;3.38;3.10;;;;;;;;;;5072877;28;20706;-78
2023/09/27 03:40:27;;;;;;;3.28;3.03;;;;;;;;;;5071719;28;20402;-78
2023/09/27 03:42:53;;;;;;;3.90;3.60;;;;;;;;;;5072531;28;20416;-78
2023/09/27 03:45:19;;;;;;;3.50;3.17;;;;;;;;;;5072662;28;20376;-78
2023/09/27 03:47:47;;;;;;;3.15;2.85;;;;;;;;;;5072595;28;20379;-78
2023/09/27 03:50:13;;;;;;;3.37;3.07;;;;;;;;;;5073187;28;20388;-78
2023/09/27 03:52:40;;;;;;;3.40;3.10;;;;;;;;;;5073651;28;20394;-79
2023/09/27 03:55:07;;;;;;;3.30;3.00;;;;;;;;;;5072654;28;20395;-78
2023/09/27 03:57:33;;;;;;;3.70;3.30;;;;;;;;;;5074159;28;20384;-78
2023/09/27 03:59:59;;;;;;;3.17;2.90;;;;;;;;;;5072422;28;20395;-78
2023/09/27 04:02:26;;;;;;;3.30;3.03;;;;;;;;;;5071654;28;20446;-78
2023/09/27 04:04:52;;;;;;;3.08;2.78;;;;;;;;;;5072189;28;20387;-78
2023/09/27 04:07:20;;;;;;;2.97;2.78;;;;;;;;;;5072071;28;20372;-78
2023/09/27 04:09:47;;;;;;;3.15;2.75;;;;;;;;;;5071953;28;20402;-78
2023/09/27 04:12:13;;;;;;;3.40;3.10;;;;;;;;;;5071987;28;20375;-78
2023/09/27 04:14:39;;;;;;;3.45;3.15;;;;;;;;;;5071729;28;20410;-78
2023/09/27 04:17:05;;;;;;;3.85;3.35;;;;;;;;;;5071700;28;20382;-78
2023/09/27 04:19:31;;;;;;;3.50;3.20;;;;;;;;;;5063313;28;20396;-78
2023/09/27 04:21:57;;;;;;;3.47;2.87;;;;;;;;;;5072149;28;20476;-78
2023/09/27 04:24:23;;;;;;;4.80;4.25;;;;;;;;;;5059635;28;20400;-78
2023/09/27 04:26:50;;;;;;;8.10;6.45;;;;;;;;;;5070897;28;20387;-78
2023/09/27 04:29:16;;;;;;;8.20;7.07;;;;;;;;;;5070100;28;20788;-78
2023/09/27 04:31:42;;;;;;;8.75;6.65;;;;;;;;;;5072332;28;20398;-78
2023/09/27 04:34:08;;;;;;;7.90;6.78;;;;;;;;;;5071519;28;20431;-78
2023/09/27 04:36:34;;;;;;;8.65;6.85;;;;;;;;;;5065095;28;20406;-78
2023/09/27 04:39:00;;;;;;;8.35;6.85;;;;;;;;;;5065590;28;20400;-78
2023/09/27 04:41:26;;;;;;;7.63;6.70;;;;;;;;;;5070071;28;20444;-78
2023/09/27 04:43:52;;;;;;;7.20;6.43;;;;;;;;;;5071435;28;20728;-78
2023/09/27 04:46:18;;;;;;;9.57;6.22;;;;;;;;;;5076370;28;20378;-79
2023/09/27 04:48:45;;;;;;;8.03;6.47;;;;;;;;;;5071575;28;20462;-79
2023/09/27 04:51:11;;;;;;;8.00;6.38;;;;;;;;;;5073742;28;20403;-78
2023/09/27 04:53:37;;;;;;;8.52;6.63;;;;;;;;;;5071910;28;20384;-79
2023/09/27 04:56:12;;;;;;;8.43;6.43;;;;;;;;;;5071887;28;20464;-78
2023/09/27 04:58:39;;;;;;;7.37;6.67;;;;;;;;;;5071345;28;20942;-79
2023/09/27 05:01:05;;;;;;;8.25;6.78;;;;;;;;;;5071601;28;20383;-78
2023/09/27 05:03:32;;;;;;;8.32;7.47;;;;;;;;;;5073054;28;20533;-79
2023/09/27 05:05:58;;;;;;;12.65;7.03;;;;;;;;;;5071319;28;20434;-78
2023/09/27 05:08:27;;;;;;;7.50;6.72;;;;;;;;;;5072047;28;20413;-79
2023/09/27 05:10:54;;;;;;;7.57;6.88;;;;;;;;;;5072117;28;20391;-79
2023/09/27 05:13:21;;;;;;;9.23;6.93;;;;;;;;;;5090247;28;20461;-79
2023/09/27 05:15:51;;;;;;;8.40;7.40;;;;;;;;;;5076659;28;20786;-79
2023/09/27 05:18:17;;;;;;;8.32;7.35;;;;;;;;;;5071858;28;20420;-79
2023/09/27 05:20:46;;;;;;;7.97;7.17;;;;;;;;;;5071861;28;20732;-79
2023/09/27 05:23:12;;;;;;;11.75;7.30;;;;;;;;;;5071605;28;20771;-79
2023/09/27 05:25:39;;;;;;;8.73;7.72;;;;;;;;;;5082650;28;20449;-79
2023/09/27 05:28:05;;;;;;;10.10;7.97;;;;;;;;;;5068442;28;20383;-79
2023/09/27 05:30:31;;;;;;;9.93;8.05;;;;;;;;;;5073023;28;20383;-78
2023/09/27 05:32:57;;;;;;;10.15;7.63;;;;;;;;;;5068977;28;20379;-79
2023/09/27 05:35:24;;;;;;;8.82;7.82;;;;;;;;;;5071910;28;20383;-79
2023/09/27 05:37:50;;;;;;;10.50;7.80;;;;;;;;;;5073832;28;20455;-79
2023/09/27 05:40:16;;;;;;;10.35;8.52;;;;;;;;;;5076032;28;20388;-79
2023/09/27 05:42:43;;;;;;;11.88;8.52;;;;;;;;;;5064551;28;20410;-79
2023/09/27 05:45:13;;;;;;;12.50;9.32;;;;;;;;;;5078400;28;20423;-79
2023/09/27 05:47:39;;;;;;;11.60;9.48;;;;;;;;;;5075117;28;20399;-79
2023/09/27 05:50:08;;;;;;;10.30;9.20;;;;;;;;;;5075844;28;20380;-79
2023/09/27 05:52:34;;;;;;;10.37;9.03;;;;;;;;;;5074902;28;20497;-79
2023/09/27 05:55:01;;;;;;;10.93;9.48;;;;;;;;;;5079899;28;20510;-79
2023/09/27 05:57:27;;;;;;;12.18;9.68;;;;;;;;;;5079927;28;20396;-79
2023/09/27 05:59:53;;;;;;;13.25;10.27;;;;;;;;;;5075306;28;20376;-79
2023/09/27 06:02:20;;;;;;;14.82;10.57;;;;;;;;;;5055510;28;20420;-79
2023/09/27 06:04:46;;;;;;;13.45;10.32;;;;;;;;;;5074537;28;20496;-78
2023/09/27 06:07:17;;;;;;;12.25;9.40;;;;;;;;;;5074885;28;20472;-79
2023/09/27 06:09:43;;;;;;;11.93;10.00;;;;;;;;;;5074661;28;20714;-79
2023/09/27 06:12:10;;;;;;;12.23;9.32;;;;;;;;;;5074567;28;20922;-79
2023/09/27 06:14:36;;;;;;;13.38;10.25;;;;;;;;;;5073980;28;21150;-78
2023/09/27 06:17:03;;;;;;;15.25;10.43;;;;;;;;;;5075221;28;20797;-78
2023/09/27 06:19:29;;;;;;;13.98;10.73;;;;;;;;;;5056834;28;20475;-78
2023/09/27 06:21:55;;;;;;;15.75;9.52;;;;;;;;;;5073844;28;20410;-78
2023/09/27 06:24:21;;;;;;;12.15;9.40;;;;;;;;;;5080280;28;20394;-78
2023/09/27 06:26:47;;;;;;;11.43;10.07;;;;;;;;;;5074870;28;20895;-78
2023/09/27 06:29:13;;;;;;;13.85;9.98;;;;;;;;;;5074518;28;20388;-78
2023/09/27 06:31:39;;;;;;;16.90;11.30;;;;;;;;;;5073715;28;20423;-78
2023/09/27 06:34:08;;;;;;;12.75;9.85;;;;;;;;;;5073764;28;20376;-78
2023/09/27 06:36:34;;;;;;;13.35;10.68;;;;;;;;;;5073535;28;20475;-78
2023/09/27 06:39:01;;;;;;;13.68;11.20;;;;;;;;;;5073329;28;20383;-78
2023/09/27 06:41:27;;;;;;;17.40;11.73;;;;;;;;;;5081753;28;20404;-78
2023/09/27 06:43:53;;;;;;;15.75;10.80;;;;;;;;;;5075223;28;20416;-78
2023/09/27 06:46:21;;;;;;;13.77;11.00;;;;;;;;;;5074319;28;20372;-78
2023/09/27 06:48:48;;;;;;;13.50;11.57;;;;;;;;;;5073648;28;20836;-78
2023/09/27 06:51:14;;;;;;;14.43;11.90;;;;;;;;;;5074345;28;20383;-78
2023/09/27 06:53:40;;;;;;;14.35;11.93;;;;;;;;;;5074089;28;20379;-78
2023/09/27 06:56:06;;;;;;;15.38;12.25;;;;;;;;;;5074729;28;20383;-79
2023/09/27 06:58:32;;;;;;;14.43;11.73;;;;;;;;;;5074498;28;20379;-78
2023/09/27 07:00:58;;;;;;;15.43;12.80;;;;;;;;;;5060719;28;20391;-78
2023/09/27 07:03:25;;;;;;;16.10;13.18;;;;;;;;;;5074028;28;20502;-78
2023/09/27 07:05:54;;;;;;;15.38;13.23;;;;;;;;;;5072901;28;20384;-79
2023/09/27 07:08:21;;;;;;;15.45;12.75;;;;;;;;;;5074081;28;20384;-79
2023/09/27 07:10:56;;;;;;;18.42;14.00;;;;;;;;;;5074248;28;20410;-78
2023/09/27 07:13:22;;;;;;;20.05;14.50;;;;;;;;;;5076111;28;20466;-79
2023/09/27 07:15:48;;;;;;;19.73;15.65;;;;;;;;;;5084292;28;20425;-79
2023/09/27 07:18:14;;;;;;;20.75;15.98;;;;;;;;;;5053822;28;20401;-80
2023/09/27 07:20:43;;;;;;;24.77;17.67;;;;;;;;;;5079847;28;20398;-80
2023/09/27 07:23:14;;;;;;;22.60;16.52;;;;;;;;;;5090841;28;20462;-80
2023/09/27 07:25:41;;;;;;;24.20;17.45;;;;;;;;;;5091142;28;20442;-80
2023/09/27 07:28:07;;;;;;;24.80;17.63;;;;;;;;;;5077591;28;20384;-80
2023/09/27 07:30:37;;;;;;;23.48;17.13;;;;;;;;;;5084157;28;20439;-80
2023/09/27 07:33:08;;;;;;;22.38;16.85;;;;;;;;;;5081331;28;20377;-80
2023/09/27 07:35:35;;;;;;;22.92;16.60;;;;;;;;;;5082174;28;20384;-81
2023/09/27 07:38:01;;;;;;;24.08;17.48;;;;;;;;;;5082506;28;20376;-80
2023/09/27 07:40:27;;;;;;;24.25;17.73;;;;;;;;;;5082584;28;20387;-80
2023/09/27 07:42:53;;;;;;;26.08;17.88;;;;;;;;;;5081683;28;20399;-80
2023/09/27 07:45:25;;;;;;;27.10;19.45;;;;;;;;;;5080903;28;20411;-80
2023/09/27 07:47:52;;;;;;;26.20;18.60;;;;;;;;;;5081764;28;20391;-80
2023/09/27 07:50:18;;;;;;;27.88;19.58;;;;;;;;;;5081368;28;20414;-81
2023/09/27 07:52:44;;;;;;;30.13;19.73;;;;;;;;;;5087494;28;20372;-80
2023/09/27 07:55:14;;;;;;;29.02;18.83;;;;;;;;;;5081684;28;20391;-80
2023/09/27 07:57:43;;;;;;;29.03;19.47;;;;;;;;;;5082429;28;20382;-81
2023/09/27 08:00:09;;;;;;;25.00;18.42;;;;;;;;;;5077223;28;20857;-80
2023/09/27 08:02:36;;;;;;;25.05;18.67;;;;;;;;;;5081893;28;20781;-80
2023/09/27 08:05:09;;;;;;;27.15;19.55;;;;;;;;;;5081467;28;20393;-80
2023/09/27 08:07:36;;;;;;;25.63;18.90;;;;;;;;;;5081145;28;20379;-80
2023/09/27 08:10:02;;;;;;;28.77;19.92;;;;;;;;;;5079462;28;20436;-80
2023/09/27 08:12:31;;;;;;;27.85;20.08;;;;;;;;;;5081143;28;20427;-80
2023/09/27 08:14:58;;;;;;;32.10;21.85;;;;;;;;;;5080558;28;20398;-80
2023/09/27 08:17:24;;;;;;;29.02;20.52;;;;;;;;;;5081105;28;20427;-80
2023/09/27 08:19:49;;;;;;;31.00;21.42;;;;;;;;;;5080856;28;20392;-80
2023/09/27 08:22:15;;;;;;;34.45;22.90;;;;;;;;;;5081334;28;20471;-80
2023/09/27 08:24:42;;;;;;;32.08;22.63;;;;;;;;;;5062719;28;20399;-80
2023/09/27 08:27:08;;;;;;;27.73;20.67;;;;;;;;;;5080942;28;20395;-80
2023/09/27 08:29:34;;;;;;;27.50;21.25;;;;;;;;;;5080126;28;20396;-80
2023/09/27 08:32:00;;;;;;;25.85;20.40;;;;;;;;;;5080551;28;20388;-80
2023/09/27 08:34:27;;;;;;;28.50;22.42;;;;;;;;;;5080371;28;20391;-80
2023/09/27 08:36:53;;;;;;;29.05;22.73;;;;;;;;;;5081604;28;20418;-80
2023/09/27 08:39:20;;;;;;;30.42;22.77;;;;;;;;;;5081176;28;20928;-80
2023/09/27 08:41:46;;;;;;;31.05;23.00;;;;;;;;;;5079962;28;20849;-80
2023/09/27 08:44:12;;;;;;;32.03;24.27;;;;;;;;;;5084444;28;20444;-80
2023/09/27 08:46:39;;;;;;;32.60;24.33;;;;;;;;;;5082618;28;20811;-80
2023/09/27 08:49:08;;;;;;;28.88;23.65;;;;;;;;;;5080785;28;20901;-80
2023/09/27 08:51:35;;;;;;;30.67;23.80;;;;;;;;;;5080413;28;20379;-80
2023/09/27 08:54:02;;;;;;;28.98;23.92;;;;;;;;;;5081771;28;20392;-80
2023/09/27 08:56:28;;;;;;;30.50;24.08;;;;;;;;;;5087190;28;20394;-80
2023/09/27 08:58:54;;;;;;;31.70;24.15;;;;;;;;;;5081795;28;20394;-80
2023/09/27 09:01:21;;;;;;;30.90;24.15;;;;;;;;;;5081378;28;20402;-80
2023/09/27 09:03:47;;;;;;;33.13;24.52;;;;;;;;;;5081261;28;20427;-80
2023/09/27 09:06:15;;;;;;;34.58;25.33;;;;;;;;;;5080990;28;20379;-80
2023/09/27 09:08:44;;;;;;;33.20;25.38;;;;;;;;;;5081592;28;20388;-81
2023/09/27 09:11:11;;;;;;;32.15;25.08;;;;;;;;;;5081094;28;20404;-80
2023/09/27 09:13:57;;;;;;;33.17;24.67;;;;;;;;;;5086387;28;20853;-80
2023/09/27 09:16:23;;;;;;;31.70;22.17;;;;;;;;;;5079923;28;20379;-80
2023/09/27 09:18:52;;;;;;;31.13;23.50;;;;;;;;;;5085438;28;20464;-81
2023/09/27 09:21:21;;;;;;;27.33;21.42;;;;;;;;;;5086104;28;20383;-80
2023/09/27 09:23:51;;;;;;;25.60;19.75;;;;;;;;;;5087880;28;20506;-80
2023/09/27 09:26:28;;;;;;;22.55;17.40;;;;;;;;;;5087779;28;20394;-80
2023/09/27 09:28:56;;;;;;;22.23;18.55;;;;;;;;;;5086537;28;20445;-80
2023/09/27 09:31:26;;;;;;;22.30;18.17;;;;;;;;;;5088307;28;20860;-80
2023/09/27 09:34:05;;;;;;;23.55;18.58;;;;;;;;;;5088064;28;20383;-80
2023/09/27 09:36:31;;;;;;;24.55;19.27;;;;;;;;;;5084902;28;20391;-79
2023/09/27 09:39:13;;;;;;;23.67;18.83;;;;;;;;;;5081379;28;20383;-79
2023/09/27 09:41:49;;;;;;;23.05;17.98;;;;;;;;;;5081171;28;20886;-79
2023/09/27 09:44:20;;;;;;;21.65;17.27;;;;;;;;;;5077828;28;20486;-79
2023/09/27 09:46:46;;;;;;;18.92;16.65;;;;;;;;;;5061312;28;20418;-80
2023/09/27 09:49:17;;;;;;;21.47;17.93;;;;;;;;;;5079549;28;20956;-79
2023/09/27 09:51:46;;;;;;;21.58;18.25;;;;;;;;;;5080363;28;20398;-80
2023/09/27 09:54:26;;;;;;;23.15;18.85;;;;;;;;;;5070773;28;20702;-79
2023/09/27 09:56:52;;;;;;;20.40;17.38;;;;;;;;;;5080328;28;20813;-79
2023/09/27 09:59:23;;;;;;;23.33;18.42;;;;;;;;;;5072695;28;20459;-79
2023/09/27 10:01:49;;;;;;;20.38;17.83;;;;;;;;;;5080776;28;20371;-79
2023/09/27 10:04:16;;;;;;;19.33;17.00;;;;;;;;;;5080825;28;20410;-79
2023/09/27 10:06:43;;;;;;;18.90;16.90;;;;;;;;;;5080594;28;20383;-80
2023/09/27 10:09:14;;;;;;;19.50;17.40;;;;;;;;;;5081276;28;20911;-80
2023/09/27 10:11:40;;;;;;;19.52;17.42;;;;;;;;;;5079966;28;20384;-79
2023/09/27 10:14:10;;;;;;;21.27;17.27;;;;;;;;;;5078941;28;20449;-79
2023/09/27 10:16:37;;;;;;;22.10;17.98;;;;;;;;;;5080404;28;20961;-79
2023/09/27 10:19:05;;;;;;;19.80;17.10;;;;;;;;;;5080329;28;20462;-79
2023/09/27 10:21:31;;;;;;;19.48;16.17;;;;;;;;;;5080915;28;20811;-79
2023/09/27 10:23:58;;;;;;;18.23;16.17;;;;;;;;;;5078584;28;20419;-80
2023/09/27 10:26:28;;;;;;;18.60;16.55;;;;;;;;;;5077680;28;20380;-79
2023/09/27 10:31:30;;;;;;;17.90;16.10;;;;;;;;;;5077921;28;20839;-79
2023/09/27 10:33:56;;;;;;;18.08;16.15;;;;;;;;;;5077740;28;20380;-79
2023/09/27 10:36:22;;;;;;;18.67;16.57;;;;;;;;;;5077134;28;20877;-80
2023/09/27 10:38:51;;;;;;;17.98;16.17;;;;;;;;;;5077305;28;20402;-79
2023/09/27 10:41:32;;;;;;;17.30;15.60;;;;;;;;;;5076938;28;20415;-79
2023/09/27 10:44:02;;;;;;;18.17;16.27;;;;;;;;;;5075305;28;20491;-79
2023/09/27 10:46:28;;;;;;;18.00;16.10;;;;;;;;;;5076176;28;20407;-79
2023/09/27 10:49:00;;;;;;;19.60;16.52;;;;;;;;;;5077066;28;20384;-79
2023/09/27 10:51:26;;;;;;;17.43;15.63;;;;;;;;;;5076350;28;20795;-79
2023/09/27 10:53:55;;;;;;;18.00;16.33;;;;;;;;;;5089216;28;20386;-79
2023/09/27 10:56:21;;;;;;;18.48;16.42;;;;;;;;;;5078913;28;20392;-80
2023/09/27 10:58:49;;;;;;;19.45;16.77;;;;;;;;;;5076616;28;20409;-80
2023/09/27 11:01:22;;;;;;;20.10;17.15;;;;;;;;;;5076715;28;20376;-80
2023/09/27 11:03:48;;;;;;;22.52;17.77;;;;;;;;;;5076388;28;20415;-79
2023/09/27 11:06:15;;;;;;;23.27;18.57;;;;;;;;;;5077945;28;20383;-80
2023/09/27 11:08:44;;;;;;;21.58;17.83;;;;;;;;;;5076748;28;20864;-80
2023/09/27 11:11:14;;;;;;;19.58;17.10;;;;;;;;;;5076608;28;20391;-80
2023/09/27 11:13:43;;;;;;;19.17;17.08;;;;;;;;;;5076659;28;20487;-80
2023/09/27 11:16:10;;;;;;;17.10;15.30;;;;;;;;;;5058377;28;20434;-81
2023/09/27 11:18:36;;;;;;;17.15;15.45;;;;;;;;;;5075834;28;20415;-78
2023/09/27 11:21:09;;;;;;;18.17;16.27;;;;;;;;;;5076553;28;20376;-80
2023/09/27 11:23:53;;;;;;;16.20;14.65;;;;;;;;;;5076041;28;20411;-79
2023/09/27 11:26:22;;;;;;;15.73;13.97;;;;;;;;;;5082979;28;20419;-79
2023/09/27 11:29:05;;;;;;;15.15;13.63;;;;;;;;;;5076463;28;20376;-79
2023/09/27 11:31:35;;;;;;;14.45;13.15;;;;;;;;;;5075985;28;20478;-79
2023/09/27 11:34:14;;;;;;;14.65;12.43;;;;;;;;;;5076069;28;20384;-79
2023/09/27 11:36:41;;;;;;;12.52;11.32;;;;;;;;;;5074897;28;20848;-79
2023/09/27 11:39:07;;;;;;;15.63;11.50;;;;;;;;;;5076035;28;20380;-80
2023/09/27 11:41:36;;;;;;;11.18;10.18;;;;;;;;;;5076221;28;20443;-79
2023/09/27 11:44:23;;;;;;;10.70;9.70;;;;;;;;;;5075558;28;20422;-79
2023/09/27 11:46:49;;;;;;;10.40;9.50;;;;;;;;;;5075658;28;20387;-79
2023/09/27 11:49:16;;;;;;;9.88;8.57;;;;;;;;;;5076502;28;20384;-80
2023/09/27 11:51:43;;;;;;;8.80;8.10;;;;;;;;;;5074972;28;20399;-79
2023/09/27 11:54:12;;;;;;;8.80;8.10;;;;;;;;;;5075495;28;20384;-80
2023/09/27 11:56:38;;;;;;;9.15;8.35;;;;;;;;;;5076301;28;20384;-80
2023/09/27 11:59:05;;;;;;;8.57;7.88;;;;;;;;;;5076888;28;20393;-81
2023/09/27 12:01:31;;;;;;;10.20;9.30;;;;;;;;;;5075493;28;20423;-80
2023/09/27 12:03:58;;;;;;;10.23;9.23;;;;;;;;;;5075176;28;20423;-80
2023/09/27 12:06:25;;;;;;;9.98;9.18;;;;;;;;;;5076221;28;20376;-80
2023/09/27 12:08:51;;;;;;;8.60;7.85;;;;;;;;;;5075275;28;20745;-80
2023/09/27 12:11:17;;;;;;;9.27;8.47;;;;;;;;;;5075543;28;20422;-80
2023/09/27 12:13:43;;;;;;;7.78;7.18;;;;;;;;;;5075729;28;20410;-78
2023/09/27 12:16:09;;;;;;;6.95;6.35;;;;;;;;;;5075704;28;20388;-79
2023/09/27 12:18:35;;;;;;;6.43;5.82;;;;;;;;;;5075642;28;20387;-81
2023/09/27 12:21:01;;;;;;;5.60;5.07;;;;;;;;;;5075021;28;20426;-80
2023/09/27 12:23:27;;;;;;;5.53;5.03;;;;;;;;;;5074402;28;20427;-79
2023/09/27 12:25:53;;;;;;;4.72;4.32;;;;;;;;;;5075443;28;20383;-80
2023/09/27 12:28:22;;;;;;;5.45;4.95;;;;;;;;;;5074681;28;20404;-79
2023/09/27 12:30:49;;;;;;;4.72;4.32;;;;;;;;;;5074754;28;20380;-79
2023/09/27 12:33:15;;;;;;;4.45;4.00;;;;;;;;;;5074923;28;20399;-79
2023/09/27 12:35:42;;;;;;;5.10;4.40;;;;;;;;;;5056965;28;20375;-81
2023/09/27 12:38:08;;;;;;;4.68;4.28;;;;;;;;;;5075299;28;20400;-79
2023/09/27 12:40:34;;;;;;;4.70;4.30;;;;;;;;;;5074800;28;20375;-79
2023/09/27 12:43:01;;;;;;;5.13;4.70;;;;;;;;;;5074640;28;20415;-79
2023/09/27 12:45:28;;;;;;;5.90;4.70;;;;;;;;;;5075142;28;20398;-79
2023/09/27 12:47:54;;;;;;;6.20;4.30;;;;;;;;;;5074379;28;20382;-79
2023/09/27 12:50:26;;;;;;;5.65;4.88;;;;;;;;;;5077942;28;20385;-79
2023/09/27 12:52:52;;;;;;;5.10;4.70;;;;;;;;;;5075075;28;20391;-79
2023/09/27 12:55:18;;;;;;;5.05;4.25;;;;;;;;;;5076270;28;20404;-82
2023/09/27 12:57:46;;;;;;;4.43;4.03;;;;;;;;;;5076426;28;20396;-82
2023/09/27 13:00:12;;;;;;;4.10;3.80;;;;;;;;;;5072903;28;20832;-80
2023/09/27 13:02:38;;;;;;;4.80;3.53;;;;;;;;;;5075793;28;20403;-80
2023/09/27 13:05:04;;;;;;;3.53;3.22;;;;;;;;;;5075803;28;20436;-80
2023/09/27 13:07:30;;;;;;;5.50;3.40;;;;;;;;;;5075735;28;20768;-81
2023/09/27 13:09:56;;;;;;;4.25;3.60;;;;;;;;;;5075808;28;20384;-82
2023/09/27 13:12:23;;;;;;;4.75;4.28;;;;;;;;;;5075659;28;20513;-80
2023/09/27 13:14:49;;;;;;;5.03;4.00;;;;;;;;;;5075407;28;20488;-80
2023/09/27 13:17:16;;;;;;;4.88;3.58;;;;;;;;;;5075223;28;20840;-80
2023/09/27 13:19:43;;;;;;;3.60;3.20;;;;;;;;;;5076156;28;20376;-79
2023/09/27 13:22:09;;;;;;;3.78;3.05;;;;;;;;;;5057489;28;20423;-81
2023/09/27 13:24:35;;;;;;;3.57;3.27;;;;;;;;;;5075393;28;20384;-79
2023/09/27 13:27:01;;;;;;;3.42;2.90;;;;;;;;;;5075781;28;20375;-79
2023/09/27 13:29:26;;;;;;;5.20;3.25;;;;;;;;;;5076298;28;20457;-82
2023/09/27 13:31:52;;;;;;;3.97;3.22;;;;;;;;;;5080584;28;20455;-81
2023/09/27 13:34:18;;;;;;;3.30;3.00;;;;;;;;;;5074986;28;20384;-82
2023/09/27 13:36:44;;;;;;;8.70;3.28;;;;;;;;;;5074578;28;20386;-79
2023/09/27 13:39:16;;;;;;;5.43;3.50;;;;;;;;;;5074989;28;20380;-81
2023/09/27 13:41:42;;;;;;;2.83;2.63;;;;;;;;;;5075247;28;20383;-80
2023/09/27 13:44:08;;;;;;;3.65;2.90;;;;;;;;;;5074890;28;20514;-80
2023/09/27 13:46:34;;;;;;;4.68;2.70;;;;;;;;;;5075081;28;20820;-80
2023/09/27 13:49:00;;;;;;;6.65;2.88;;;;;;;;;;5075129;28;20387;-80
2023/09/27 13:51:26;;;;;;;3.20;2.55;;;;;;;;;;5074978;28;20379;-80
2023/09/27 13:53:52;;;;;;;4.05;2.85;;;;;;;;;;5074297;28;20766;-82
2023/09/27 13:56:18;;;;;;;3.70;2.37;;;;;;;;;;5074201;28;20505;-79
2023/09/27 13:58:44;;;;;;;6.97;3.20;;;;;;;;;;5075968;28;20380;-81
2023/09/27 14:01:10;;;;;;;6.33;4.80;;;;;;;;;;5073858;28;20403;-81
2023/09/27 14:03:36;;;;;;;8.00;6.33;;;;;;;;;;5079271;28;20479;-79
2023/09/27 14:06:03;;;;;;;7.88;5.40;;;;;;;;;;5077561;28;20427;-79
2023/09/27 14:08:29;;;;;;;8.45;4.85;;;;;;;;;;5077371;28;20376;-79
2023/09/27 14:10:55;;;;;;;6.38;5.55;;;;;;;;;;5077335;28;20382;-79
2023/09/27 14:13:21;;;;;;;8.32;6.80;;;;;;;;;;5076770;28;20412;-79
2023/09/27 14:15:47;;;;;;;8.38;5.78;;;;;;;;;;5077192;28;20383;-79
2023/09/27 14:18:13;;;;;;;8.77;5.22;;;;;;;;;;5077709;28;20867;-79
2023/09/27 14:20:39;;;;;;;6.72;5.50;;;;;;;;;;5077762;28;20375;-79
2023/09/27 14:23:05;;;;;;;5.75;5.13;;;;;;;;;;5077260;28;20475;-79
2023/09/27 14:25:33;;;;;;;5.13;4.37;;;;;;;;;;5078023;28;20390;-79
2023/09/27 14:27:59;;;;;;;7.40;4.40;;;;;;;;;;5077485;28;20398;-79
2023/09/27 14:30:25;;;;;;;5.47;4.20;;;;;;;;;;5077890;28;20841;-79
2023/09/27 14:32:51;;;;;;;4.30;3.90;;;;;;;;;;5076544;28;20382;-78
2023/09/27 14:35:17;;;;;;;5.47;3.95;;;;;;;;;;5076995;28;20384;-79